Oakdale, NY (11769)

12:30 PM EDT on July 26, 2016 (GMT -0400)
Idle Hour | | Change Station

Elev 3 ft 40.73 °N, 73.14 °W | Updated 13 minutes ago

Partly Cloudy
Partly Cloudy
91.2 °F
Feels Like 95 °F
N
7.4
Wind Variable Wind from NNW

Today
High -- | Low -- °F
--% Chance of Precip.
Yesterday
High -- | Low -- °F
Precip. -- in
Pressure 29.88 in
Visibility 10.0 miles
Clouds Few 5000 ft
Few 25000 ft
Heat Index 95 °F
Dew Point 68 °F
Humidity 46%
Rainfall 0.00 in
Snow Depth Not available.
5:43 AM 8:13 PM
Waning Gibbous, 53% visible
METAR KISP 261556Z 28010KT 10SM FEW050 FEW250 31/17 A2989 RMK AO2 SLP118 T03110167
Pressure 29.88 in
Visibility 10.0 miles
Clouds Few 5000 ft
Few 25000 ft
Heat Index 95 °F
Dew Point 68 °F
Humidity 46%
Rainfall 0.00 in
Snow Depth Not available.
5:43 AM 8:13 PM
Waning Gibbous, 53% visible
METAR KISP 261556Z 28010KT 10SM FEW050 FEW250 31/17 A2989 RMK AO2 SLP118 T03110167

10-Day Weather Forecast

Almanac

Astronomy

Jul. 26, 2016 Rise Set
Actual Time
Civil Twilight
Nautical Twilight
Astronomical Twilight
Moon
Length of Visible Light
Length of Day
Tomorrow will be .
, % of the Moon is Illuminated

Today's Extremes

State Highs State Lows

Community

WunderPhotos

Upload Photos

1,927,626 photos uploaded!

WunderBlog® & News

Nearby

Air Quality

  Air Quality AQ Index Pollutant
Not available.

Snow Depth

Station Depth Elevation

Earthquake Activity

City Distance Mag. Time & Date
Minimum magnitude displayed is 2.5.

Coastal Water Temperatures

Place Temperature

Stations

Nearby Weather Stations

Station Location Temp. Windchill Dew Point Humidity Wind Precip. Elev Updated Type
                   

Watches & Warnings

There are currently no watches in effect.